Athol Springs, New York
Current Conditions -  °F | °C
As of 12:54 PM on Thursday 23 Oct 2014 (Local Time) from KBUF Reporting Station
Few Clouds Few Clouds  
Wind Chill: 57°   Ceiling: Unl
Heat Index: 57°   Visibility: 10mi
Dew Point: 39°   Wind: 12mph
Humidity: 51%   Direction: 350°N
Pressure: 30.08"   Gusts: NA
Location:  42.77°N, 78.87°W
Report Text: KBUF 231654Z 35010KT 10SM FEW036 FEW055 FEW100 14/04 A3008 RMK AO2 SLP190 T01390039
Loading
Personal Weather Stations






























Interactive Weather Map
Tropical Storm Tracking
New forecast layout! Learn more

10-Day Weather Forecast

Advertisements
Track Severe Weather on mobile